Huvudsida
METAR-TAF:

METAR-TAF

Flygplatser :

Ilam flygplats

Ilam, Iran

latitud: 33-35-09N, longitud: 046-24-20E, höjd: 1334 m

Aktuellt väderrapport

Denna rapport gjordes för 53 minuter sedan, klockan 14:00 UTC
Vind 14 kt från väst/nordväst i byarna ända upp till 19 kt
Temperatur 37°C
Fuktighet 13%
Tryck 1014 hPa
Sikt 10 km eller mer
Inga moln under 1 500 m eller inga cumulonimbus

METAR: OICI 261400Z 29014G19KT CAVOK 37/04 Q1014 A2995

Tid: 19:23 (14:53 UTC)

Väderprognos

Denna rapport gjordes för 3 timmar och 23 minuter sedan, klockan 11:30 UTC
Prognos gäller från 26 kl. 12 UTC till 27 kl. 18 UTC
Vind 8 kt från väst/nordväst
Sikt: 7000 m
Temporärt
från 26 kl. 12 UTC till 26 kl. 15 UTC
Vind 18 kt från väst
Temporärt
från 27 kl. 10 UTC till 27 kl. 14 UTC
Vind 18 kt från väst

TAF: OICI 261130Z 2612/2718 30008KT 7000 NSC TEMPO 2612/2615 27018KT TEMPO 2710/2714 27018KT

Aktuella väderrapporter och prognoser från 4000 flygplatser (METAR- och TAF-rapporter).

De tillgängliga stationerna syns som gula och röda prickar på kartan.

För musen över prickarna för att se namnen på stationerna.

Klicka sedan för att få väderrapporter och prognoser.

För att ändra kartan: Klicka på de gröna knapparna med ett svart kors på för att zooma in; den gröna knappen med ett streck på för att zooma ut; eller på de gröna pilarna för angränsande kartor.


METAR-TAF: